Time;durP1;ratioP1;P1;durP2;ratioP2;P2;SDS_P1;SDS_P2;PMS_P1;PMS_P2;Temp;Humidity;BMP_temperature;BMP_pressure;BME280_temperature;BME280_humidity;BME280_pressure;Samples;Min_cycle;Max_cycle;Signal;HPM_P1;HPM_P2
2022/10/02 00:00:39;;;;;;;;;;;10.60;99.90;;;;;;4940618;28;212295;-72
2022/10/02 00:03:20;;;;;;;22.50;3.85;;;10.70;99.90;;;;;;4993272;28;19917;-73
2022/10/02 00:05:53;;;;;;;24.73;4.70;;;10.70;99.90;;;;;;4945339;28;229066;-72
2022/10/02 00:08:40;;;;;;;28.95;4.00;;;10.80;99.90;;;;;;4993901;28;20054;-72
2022/10/02 00:11:19;;;;;;;21.17;3.70;;;10.90;99.90;;;;;;4945460;28;219649;-72
2022/10/02 00:13:51;;;;;;;21.83;5.03;;;10.90;99.90;;;;;;4986823;28;20492;-72
2022/10/02 00:16:33;;;;;;;29.55;4.55;;;10.90;99.90;;;;;;4936470;28;214403;-72
2022/10/02 00:18:59;;;;;;;23.55;4.47;;;11.10;99.90;;;;;;5000738;28;20058;-73
2022/10/02 00:21:46;;;;;;;19.83;4.00;;;11.10;99.90;;;;;;4955771;28;206100;-73
2022/10/02 00:24:19;;;;;;;22.50;4.32;;;11.10;99.90;;;;;;4998911;28;20053;-73
2022/10/02 00:27:14;;;;;;;18.83;4.03;;;11.10;99.90;;;;;;4951026;28;206105;-73
2022/10/02 00:29:51;;;;;;;19.73;4.10;;;11.10;99.90;;;;;;4985081;28;20423;-72
2022/10/02 00:32:29;;;;;;;22.38;3.78;;;11.10;99.90;;;;;;4956414;28;208886;-72
2022/10/02 00:34:55;;;;;;;23.52;4.45;;;11.10;99.90;;;;;;4982022;28;20053;-75
2022/10/02 00:37:35;;;;;;;20.23;4.10;;;11.10;99.90;;;;;;4962306;28;205919;-72
2022/10/02 00:40:25;;;;;;;20.20;4.20;;;11.20;99.90;;;;;;5005703;28;20072;-74
2022/10/02 00:43:14;;;;;;;19.00;4.27;;;11.10;99.90;;;;;;4947495;28;166825;-73
2022/10/02 00:46:14;;;;;;;25.88;3.92;;;11.20;99.90;;;;;;4962380;28;207942;-73
2022/10/02 00:48:52;;;;;;;23.38;4.20;;;11.10;99.90;;;;;;4999057;28;20140;-73
2022/10/02 00:51:42;;;;;;;22.83;4.00;;;11.10;99.90;;;;;;4952328;28;215793;-74
2022/10/02 00:54:17;;;;;;;22.70;3.78;;;11.10;99.90;;;;;;4991272;28;20055;-73
2022/10/02 00:57:10;;;;;;;20.05;3.35;;;11.10;99.90;;;;;;4968830;28;87856;-72
2022/10/02 00:59:43;;;;;;;21.77;3.60;;;11.10;99.90;;;;;;4986215;28;20362;-73
2022/10/02 01:02:12;;;;;;;20.83;3.78;;;11.00;99.90;;;;;;4966531;28;217180;-73
2022/10/02 01:04:40;;;;;;;22.58;3.40;;;11.00;99.90;;;;;;4990858;28;20061;-73
2022/10/02 01:07:09;;;;;;;23.33;3.33;;;11.00;99.90;;;;;;4947519;28;213841;-74
2022/10/02 01:09:37;;;;;;;19.95;3.45;;;11.00;99.90;;;;;;4991040;28;20046;-73
2022/10/02 01:12:04;;;;;;;20.63;3.35;;;11.00;99.90;;;;;;4988970;28;205734;-72
2022/10/02 01:14:38;;;;;;;17.27;3.40;;;11.00;99.90;;;;;;5008182;28;20046;-73
2022/10/02 01:17:25;;;;;;;18.63;3.38;;;11.00;99.90;;;;;;4993346;28;219163;-72
2022/10/02 01:19:52;;;;;;;17.10;3.33;;;10.90;99.90;;;;;;5028040;28;20049;-72
2022/10/02 01:22:33;;;;;;;22.50;3.08;;;10.90;99.90;;;;;;4960590;28;207240;-73
2022/10/02 01:25:03;;;;;;;;;;;10.90;99.90;;;;;;5036700;28;20518;-72
2022/10/02 01:27:30;;;;;;;18.98;3.08;;;11.00;99.90;;;;;;4980963;28;209661;-73
2022/10/02 01:30:01;;;;;;;19.40;2.90;;;11.00;99.90;;;;;;5004919;28;20050;-72
2022/10/02 01:32:28;;;;;;;18.60;3.30;;;11.00;99.90;;;;;;4984369;28;215335;-73
2022/10/02 01:34:55;;;;;;;18.45;3.10;;;11.10;99.90;;;;;;5001159;28;20061;-71
2022/10/02 01:37:25;;;;;;;15.63;2.75;;;11.10;99.90;;;;;;4972355;28;209065;-73
2022/10/02 01:39:51;;;;;;;18.42;3.00;;;11.20;99.90;;;;;;5006875;28;20694;-72
2022/10/02 01:42:20;;;;;;;16.98;2.80;;;11.20;99.90;;;;;;4987378;28;213527;-74
2022/10/02 01:44:47;;;;;;;16.20;2.75;;;11.20;99.90;;;;;;5010969;28;20058;-72
2022/10/02 01:47:24;;;;;;;17.02;2.97;;;11.20;99.90;;;;;;4980919;28;209831;-72
2022/10/02 01:50:08;;;;;;;16.20;3.45;;;11.30;99.90;;;;;;5004750;28;20785;-72
2022/10/02 01:52:58;;;;;;;16.90;2.40;;;11.30;99.90;;;;;;4967799;28;313885;-72
2022/10/02 01:55:37;;;;;;;13.68;2.20;;;11.30;99.90;;;;;;4968567;28;224387;-73
2022/10/02 01:58:25;;;;;;;18.63;2.67;;;11.30;99.90;;;;;;5015969;28;20045;-73
2022/10/02 02:01:07;;;;;;;12.40;2.25;;;11.40;99.90;;;;;;4960080;28;206813;-73
2022/10/02 02:03:47;;;;;;;14.38;2.53;;;11.40;99.90;;;;;;5009938;28;20054;-73
2022/10/02 02:06:16;;;;;;;13.13;2.20;;;11.40;99.90;;;;;;4991037;28;219924;-73
2022/10/02 02:08:59;;;;;;;14.57;2.15;;;11.50;99.90;;;;;;5020987;28;20053;-73
2022/10/02 02:11:27;;;;;;;22.60;2.72;;;11.40;99.90;;;;;;4988325;28;227616;-73
2022/10/02 02:14:16;;;;;;;14.30;2.10;;;11.40;99.90;;;;;;5015588;28;20053;-73
2022/10/02 02:16:56;;;;;;;12.45;2.63;;;11.40;99.90;;;;;;4985261;28;213721;-74
2022/10/02 02:20:04;;;;;;;18.60;2.70;;;11.40;99.90;;;;;;5005248;28;20053;-73
2022/10/02 02:22:36;;;;;;;16.95;2.60;;;11.40;99.90;;;;;;4898492;28;218814;-74
2022/10/02 02:25:17;;;;;;;15.77;2.20;;;11.40;99.90;;;;;;4968713;28;20732;-72
2022/10/02 02:27:49;;;;;;;16.17;2.55;;;11.40;99.90;;;;;;4944223;28;207734;-73
2022/10/02 02:30:17;;;;;;;13.85;2.25;;;11.40;99.90;;;;;;4948068;28;207341;-72
2022/10/02 02:33:15;;;;;;;19.45;2.50;;;11.40;99.90;;;;;;4985805;28;20060;-72
2022/10/02 02:35:45;;;;;;;17.13;2.42;;;11.40;99.90;;;;;;4950260;28;78191;-73
2022/10/02 02:38:17;;;;;;;19.35;2.55;;;11.40;99.90;;;;;;5013215;28;20050;-72
2022/10/02 02:40:45;;;;;;;15.75;2.80;;;11.40;99.90;;;;;;4934524;28;208217;-72
2022/10/02 02:43:15;;;;;;;15.90;2.50;;;11.40;99.90;;;;;;5001696;28;20065;-72
2022/10/02 02:45:56;;;;;;;21.10;3.35;;;11.40;99.90;;;;;;4945850;28;208097;-73
2022/10/02 02:48:31;;;;;;;18.27;2.55;;;11.40;99.90;;;;;;4987801;28;20058;-75
2022/10/02 02:51:09;;;;;;;19.75;3.20;;;11.40;99.90;;;;;;4946626;28;215167;-73
2022/10/02 02:53:43;;;;;;;15.80;2.55;;;11.40;99.90;;;;;;4983520;28;20464;-73
2022/10/02 02:56:15;;;;;;;15.98;2.72;;;11.40;99.90;;;;;;4937573;28;190440;-73
2022/10/02 02:58:44;;;;;;;19.10;2.60;;;11.30;99.90;;;;;;4971165;28;20058;-73
2022/10/02 03:01:10;;;;;;;18.45;3.55;;;11.40;99.90;;;;;;4943315;28;209645;-74
2022/10/02 03:03:36;;;;;;;15.90;2.92;;;11.30;99.90;;;;;;4986886;28;20050;-73
2022/10/02 03:06:16;;;;;;;14.75;2.67;;;11.30;99.90;;;;;;4933015;28;222165;-73
2022/10/02 03:08:43;;;;;;;20.45;2.80;;;11.30;99.90;;;;;;4981072;28;20054;-73
2022/10/02 03:11:26;;;;;;;18.15;3.00;;;11.30;99.90;;;;;;4958438;28;210531;-73
2022/10/02 03:13:59;;;;;;;20.55;2.97;;;11.30;99.90;;;;;;4994068;28;20060;-73
2022/10/02 03:16:46;;;;;;;16.30;2.78;;;11.30;99.90;;;;;;4966654;28;210068;-75
2022/10/02 03:19:44;;;;;;;15.73;2.85;;;11.30;99.90;;;;;;5008335;28;20388;-72
2022/10/02 03:22:34;;;;;;;21.75;3.08;;;11.40;99.90;;;;;;4985266;28;208859;-73
2022/10/02 03:25:14;;;;;;;16.23;2.90;;;11.40;99.90;;;;;;4985005;28;20049;-74
2022/10/02 03:28:03;;;;;;;17.52;2.80;;;11.40;99.90;;;;;;4974485;28;207031;-73
2022/10/02 03:30:30;;;;;;;17.67;2.80;;;11.40;99.90;;;;;;4957467;28;226434;-74
2022/10/02 03:32:59;;;;;;;18.30;3.50;;;11.40;99.90;;;;;;5003069;28;20053;-74
2022/10/02 03:35:26;;;;;;;17.63;2.90;;;11.40;99.90;;;;;;4949575;28;206342;-74
2022/10/02 03:37:59;;;;;;;18.98;3.30;;;11.40;99.90;;;;;;4997268;28;20185;-73
2022/10/02 03:40:26;;;;;;;21.05;3.38;;;11.40;99.90;;;;;;4952554;28;209810;-74
2022/10/02 03:42:57;;;;;;;19.35;3.22;;;11.40;99.90;;;;;;5010840;28;20065;-73
2022/10/02 03:45:24;;;;;;;21.50;3.10;;;11.40;99.90;;;;;;4982096;28;172422;-73
2022/10/02 03:47:50;;;;;;;19.77;3.58;;;11.40;99.90;;;;;;4994020;28;20062;-73
2022/10/02 03:50:17;;;;;;;15.10;2.90;;;11.40;99.90;;;;;;4969725;28;179804;-73
2022/10/02 03:52:44;;;;;;;20.75;2.92;;;11.40;99.90;;;;;;5005573;28;20058;-73
2022/10/02 03:55:19;;;;;;;19.90;3.40;;;11.40;99.90;;;;;;4984514;28;145715;-72
2022/10/02 03:57:46;;;;;;;20.65;2.90;;;11.30;99.90;;;;;;4979482;28;209383;-73
2022/10/02 04:00:18;;;;;;;18.48;2.80;;;11.30;99.90;;;;;;4992854;28;67047;-73
2022/10/02 04:02:49;;;;;;;17.83;2.92;;;11.40;99.90;;;;;;4960749;28;74757;-73
2022/10/02 04:05:22;;;;;;;;;;;11.30;99.90;;;;;;4950433;28;206199;-72
2022/10/02 04:07:53;;;;;;;17.40;2.40;;;11.30;99.90;;;;;;5009909;28;19928;-73
2022/10/02 04:10:30;;;;;;;15.57;2.60;;;11.20;99.90;;;;;;4960065;28;209577;-73
2022/10/02 04:13:06;;;;;;;19.45;3.03;;;11.20;99.90;;;;;;5004711;28;20061;-73
2022/10/02 04:16:03;;;;;;;17.70;2.92;;;11.20;99.90;;;;;;4969741;28;244163;-74
2022/10/02 04:18:41;;;;;;;18.40;2.72;;;11.20;99.90;;;;;;5014678;28;20068;-73
2022/10/02 04:21:14;;;;;;;20.60;2.70;;;11.20;99.90;;;;;;4967121;28;231745;-73
2022/10/02 04:23:51;;;;;;;20.30;2.70;;;11.20;99.90;;;;;;5016320;28;20057;-73
2022/10/02 04:26:40;;;;;;;17.55;2.60;;;11.20;99.90;;;;;;4963122;28;209026;-72
2022/10/02 04:29:27;;;;;;;18.83;2.72;;;11.20;99.90;;;;;;5008668;28;20422;-73
2022/10/02 04:32:09;;;;;;;16.50;2.47;;;11.20;99.90;;;;;;4936511;28;203293;-73
2022/10/02 04:34:35;;;;;;;18.23;2.55;;;11.20;99.90;;;;;;4987544;28;20527;-74
2022/10/02 04:37:35;;;;;;;14.43;2.50;;;11.10;99.90;;;;;;4971775;28;188877;-73
2022/10/02 04:40:33;;;;;;;19.83;2.95;;;11.10;99.90;;;;;;5003825;28;20265;-72
2022/10/02 04:43:32;;;;;;;14.68;2.70;;;11.10;99.90;;;;;;4974307;28;206252;-73
2022/10/02 04:46:28;;;;;;;20.50;2.65;;;11.10;99.90;;;;;;4953989;28;206736;-73
2022/10/02 04:49:05;;;;;;;23.15;3.35;;;11.00;99.90;;;;;;4994125;28;20045;-72
2022/10/02 04:52:13;;;;;;;25.45;3.13;;;11.00;99.90;;;;;;4927830;28;213970;-73
2022/10/02 04:54:58;;;;;;;17.33;2.78;;;10.90;99.90;;;;;;4949974;28;20058;-72
2022/10/02 04:57:51;;;;;;;20.48;3.00;;;10.90;99.90;;;;;;4897143;28;205808;-74
2022/10/02 05:00:23;;;;;;;15.87;2.63;;;10.80;99.90;;;;;;4907814;28;148900;-73
2022/10/02 05:03:17;;;;;;;;;;;10.80;99.90;;;;;;4924042;29;20068;-73
2022/10/02 05:05:46;;;;;;;18.75;2.60;;;10.80;99.90;;;;;;4920488;28;145681;-72
2022/10/02 05:08:21;;;;;;;21.25;2.80;;;10.70;99.90;;;;;;4937098;28;20662;-73
2022/10/02 05:11:08;;;;;;;17.10;2.70;;;10.70;99.90;;;;;;4910469;28;208130;-73
2022/10/02 05:13:54;;;;;;;17.50;2.63;;;10.70;99.90;;;;;;4931710;29;20055;-73
2022/10/02 05:16:29;;;;;;;18.00;2.78;;;10.60;99.90;;;;;;4910265;28;204967;-73
2022/10/02 05:19:29;;;;;;;19.02;2.70;;;10.60;99.90;;;;;;4959405;28;20051;-73
2022/10/02 05:22:01;;;;;;;21.38;2.75;;;10.60;99.90;;;;;;4900036;28;206720;-73
2022/10/02 05:24:37;;;;;;;18.98;2.90;;;10.60;99.90;;;;;;4950704;28;20056;-73
2022/10/02 05:27:16;;;;;;;21.02;3.30;;;10.50;99.90;;;;;;4887266;28;218256;-73
2022/10/02 05:29:50;;;;;;;18.83;2.88;;;10.50;99.90;;;;;;4928895;28;20061;-73
2022/10/02 05:32:50;;;;;;;14.68;2.50;;;10.50;99.90;;;;;;4983273;28;212942;-73
2022/10/02 05:35:24;;;;;;;20.88;2.88;;;10.50;99.90;;;;;;4957181;28;210002;-74
2022/10/02 05:38:02;;;;;;;14.98;2.40;;;10.40;99.90;;;;;;5017978;28;20363;-74
2022/10/02 05:40:49;;;;;;;21.35;3.53;;;10.40;99.90;;;;;;4977764;28;216726;-73
2022/10/02 05:43:39;;;;;;;16.63;2.70;;;10.40;99.90;;;;;;5016406;28;20060;-74
2022/10/02 05:46:29;;;;;;;21.00;2.70;;;10.30;99.90;;;;;;4961039;28;208262;-73
2022/10/02 05:49:13;;;;;;;18.25;2.67;;;10.30;99.90;;;;;;5001478;28;20049;-75
2022/10/02 05:52:19;;;;;;;15.10;2.60;;;10.40;99.90;;;;;;4980961;28;213448;-73
2022/10/02 05:54:52;;;;;;;22.88;2.97;;;10.40;99.90;;;;;;4986446;28;20060;-74
2022/10/02 05:57:30;;;;;;;19.73;3.03;;;10.30;99.90;;;;;;4970255;28;80308;-72
2022/10/02 06:00:09;;;;;;;20.85;2.88;;;10.40;99.90;;;;;;4978448;28;20053;-73
2022/10/02 06:02:38;;;;;;;20.38;2.70;;;10.40;99.90;;;;;;4937174;28;208171;-73
2022/10/02 06:05:20;;;;;;;19.42;3.50;;;10.40;99.90;;;;;;4967997;28;20346;-74
2022/10/02 06:07:50;;;;;;;17.48;3.05;;;10.50;99.90;;;;;;4907387;28;205687;-73
2022/10/02 06:10:20;;;;;;;19.40;3.03;;;10.50;99.90;;;;;;4948523;28;218226;-73
2022/10/02 06:12:57;;;;;;;18.83;3.10;;;10.50;99.90;;;;;;4994813;28;20616;-72
2022/10/02 06:15:34;;;;;;;24.23;3.47;;;10.50;99.90;;;;;;4930884;28;163682;-73
2022/10/02 06:18:18;;;;;;;22.25;3.22;;;10.50;99.90;;;;;;4941741;28;20062;-75
2022/10/02 06:21:24;;;;;;;18.08;2.88;;;10.50;99.90;;;;;;4926979;28;206487;-73
2022/10/02 06:23:54;;;;;;;18.67;3.25;;;10.60;99.90;;;;;;4974918;28;20042;-73
2022/10/02 06:26:27;;;;;;;19.30;2.83;;;10.60;99.90;;;;;;4956928;28;215187;-73
2022/10/02 06:29:01;;;;;;;20.77;3.33;;;10.60;99.90;;;;;;4997182;28;20050;-74
2022/10/02 06:31:36;;;;;;;17.80;3.60;;;10.60;99.90;;;;;;4959653;28;212411;-74
2022/10/02 06:34:02;;;;;;;18.60;3.47;;;10.60;99.90;;;;;;5011626;28;20061;-74
2022/10/02 06:36:52;;;;;;;19.77;3.08;;;10.60;99.90;;;;;;4960355;28;211990;-72
2022/10/02 06:39:30;;;;;;;19.05;3.13;;;10.70;99.90;;;;;;5006395;28;20061;-73
2022/10/02 06:42:18;;;;;;;19.73;2.88;;;10.70;99.90;;;;;;4977372;28;153063;-72
2022/10/02 06:45:05;;;;;;;23.40;3.25;;;10.70;99.90;;;;;;4998646;28;20054;-73
2022/10/02 06:47:39;;;;;;;23.95;3.97;;;10.80;99.90;;;;;;4969242;28;212584;-73
2022/10/02 06:50:40;;;;;;;25.55;3.50;;;10.80;99.90;;;;;;5004455;28;20061;-74
2022/10/02 06:53:25;;;;;;;;;;;10.90;99.90;;;;;;4975047;28;206550;-73
2022/10/02 06:56:22;;;;;;;24.73;3.08;;;10.90;99.90;;;;;;4978640;28;212767;-73
2022/10/02 06:59:06;;;;;;;19.58;3.17;;;11.00;99.90;;;;;;5010465;28;20060;-73
2022/10/02 07:01:38;;;;;;;22.30;3.45;;;11.20;99.90;;;;;;4970473;28;215676;-74
2022/10/02 07:04:35;;;;;;;19.95;2.67;;;11.30;99.90;;;;;;5009213;28;20041;-74
2022/10/02 07:07:18;;;;;;;20.55;2.90;;;11.50;99.90;;;;;;4975842;28;210766;-73
2022/10/02 07:10:01;;;;;;;18.50;3.08;;;11.70;99.90;;;;;;5004307;28;20061;-73
2022/10/02 07:12:52;;;;;;;19.95;3.22;;;11.80;99.90;;;;;;4949583;28;206700;-74
2022/10/02 07:15:55;;;;;;;20.10;3.00;;;11.90;99.90;;;;;;4985246;28;232035;-74
2022/10/02 07:18:33;;;;;;;18.05;3.13;;;12.00;99.90;;;;;;5021707;28;20084;-73
2022/10/02 07:21:34;;;;;;;18.45;3.40;;;12.00;99.90;;;;;;4966463;28;209189;-73
2022/10/02 07:24:03;;;;;;;24.15;3.17;;;12.10;99.90;;;;;;4968907;28;20073;-73
2022/10/02 07:26:45;;;;;;;21.58;2.95;;;12.10;99.90;;;;;;4931556;28;215786;-74
2022/10/02 07:29:29;;;;;;;22.35;3.42;;;12.20;99.90;;;;;;4964242;28;20057;-73
2022/10/02 07:32:11;;;;;;;16.05;2.22;;;12.20;99.90;;;;;;4929405;28;164738;-73
2022/10/02 07:34:42;;;;;;;;;;;12.20;99.90;;;;;;4962408;28;20058;-74
2022/10/02 07:37:37;;;;;;;18.42;2.55;;;12.20;99.90;;;;;;4923907;28;211748;-72
2022/10/02 07:40:11;;;;;;;14.98;2.50;;;12.20;99.90;;;;;;4928612;29;20525;-75
2022/10/02 07:43:14;;;;;;;15.82;2.50;;;12.10;99.90;;;;;;4869588;28;209029;-73
2022/10/02 07:45:55;;;;;;;14.38;2.50;;;12.10;99.90;;;;;;4859677;29;210337;-73
2022/10/02 07:48:48;;;;;;;15.23;3.35;;;12.10;99.90;;;;;;4903361;29;20596;-76
2022/10/02 07:51:48;;;;;;;21.38;3.72;;;12.00;99.90;;;;;;4864816;29;206362;-75
2022/10/02 07:54:42;;;;;;;15.48;2.40;;;12.20;99.90;;;;;;4869262;29;20753;-78
2022/10/02 07:57:26;;;;;;;15.90;4.30;;;12.30;99.90;;;;;;4844964;29;220506;-77
2022/10/02 08:00:00;;;;;;;13.07;2.85;;;12.50;99.90;;;;;;4863343;29;20093;-76
2022/10/02 08:02:33;;;;;;;16.20;2.38;;;12.60;99.90;;;;;;4847952;29;208987;-77
2022/10/02 08:05:04;;;;;;;14.57;2.28;;;12.70;99.90;;;;;;4876441;29;20053;-76
2022/10/02 08:07:31;;;;;;;12.73;2.40;;;12.70;99.90;;;;;;4824055;29;259736;-76
2022/10/02 08:10:04;;;;;;;15.68;2.63;;;12.70;99.90;;;;;;4887169;29;20044;-77
2022/10/02 08:12:45;;;;;;;16.95;2.47;;;12.80;99.90;;;;;;4850364;29;178217;-75
2022/10/02 08:15:17;;;;;;;17.17;2.72;;;12.90;99.90;;;;;;4862450;29;32350;-76
2022/10/02 08:18:33;;;;;;;17.85;3.13;;;12.90;99.90;;;;;;4855491;29;202698;-75
2022/10/02 08:21:00;;;;;;;17.88;3.22;;;13.10;99.90;;;;;;4850848;29;169986;-75
2022/10/02 08:24:09;;;;;;;19.48;3.47;;;13.10;99.90;;;;;;4901909;29;20060;-76
2022/10/02 08:27:07;;;;;;;20.67;2.80;;;13.20;99.90;;;;;;4887914;28;209069;-76
2022/10/02 08:29:47;;;;;;;18.25;3.10;;;13.20;99.90;;;;;;4906723;29;20465;-78
2022/10/02 08:32:13;;;;;;;20.17;2.88;;;13.40;99.90;;;;;;4955717;28;206862;-78
2022/10/02 08:34:41;;;;;;;17.23;2.60;;;13.50;99.90;;;;;;4984362;28;20054;-76
2022/10/02 08:37:28;;;;;;;18.38;3.10;;;13.70;99.90;;;;;;4931402;28;231149;-76
2022/10/02 08:40:00;;;;;;;19.10;3.00;;;14.00;99.90;;;;;;4985796;28;20058;-74
2022/10/02 08:42:45;;;;;;;15.68;2.92;;;14.20;99.90;;;;;;4934761;28;206681;-77
2022/10/02 08:45:33;;;;;;;19.05;2.85;;;14.20;99.90;;;;;;4997960;28;28500;-76
2022/10/02 08:48:38;;;;;;;15.68;2.47;;;14.40;99.90;;;;;;4936311;28;223142;-76
2022/10/02 08:51:07;;;;;;;16.88;2.90;;;14.50;99.90;;;;;;4952140;28;213618;-76
2022/10/02 08:53:57;;;;;;;15.43;3.03;;;14.60;99.90;;;;;;4958243;28;20054;-76
2022/10/02 08:56:42;;;;;;;20.10;2.72;;;14.70;99.90;;;;;;4928173;28;211713;-74
2022/10/02 08:59:43;;;;;;;14.77;2.50;;;14.90;99.90;;;;;;4993041;28;20091;-75
2022/10/02 09:02:15;;;;;;;16.48;2.92;;;15.00;99.90;;;;;;4975513;28;218727;-76
2022/10/02 09:04:57;;;;;;;17.75;2.72;;;15.10;99.90;;;;;;5003049;28;20050;-75
2022/10/02 09:07:45;;;;;;;18.75;2.97;;;15.20;99.90;;;;;;4947771;28;186633;-76
2022/10/02 09:10:48;;;;;;;17.38;2.95;;;15.20;99.90;;;;;;5016777;28;249060;-76
2022/10/02 09:13:38;;;;;;;20.85;2.97;;;15.30;99.90;;;;;;4999935;28;208954;-75
2022/10/02 09:16:16;;;;;;;19.48;2.53;;;15.20;99.90;;;;;;4977171;28;207242;-76
2022/10/02 09:18:42;;;;;;;16.77;2.85;;;15.20;99.90;;;;;;5021844;28;20053;-76
2022/10/02 09:21:17;;;;;;;16.83;3.03;;;15.10;99.90;;;;;;4972880;28;206627;-76
2022/10/02 09:24:21;;;;;;;19.80;2.90;;;15.10;99.90;;;;;;5009810;28;20522;-75
2022/10/02 09:26:59;;;;;;;14.07;2.63;;;15.10;99.90;;;;;;4952877;28;215546;-75
2022/10/02 09:29:41;;;;;;;17.20;2.95;;;15.00;99.90;;;;;;5001624;28;20053;-74
2022/10/02 09:32:42;;;;;;;15.80;2.92;;;15.00;99.90;;;;;;4975973;28;207004;-75
2022/10/02 09:35:49;;;;;;;21.63;2.95;;;14.80;99.90;;;;;;5021220;28;20050;-75
2022/10/02 09:38:26;;;;;;;16.98;2.40;;;14.80;99.90;;;;;;4956236;28;209241;-75
2022/10/02 09:40:59;;;;;;;14.00;2.47;;;14.90;99.90;;;;;;4956414;28;209784;-76
2022/10/02 09:43:42;;;;;;;19.90;2.80;;;15.00;99.90;;;;;;5009464;28;20053;-76
2022/10/02 09:46:45;;;;;;;18.10;3.10;;;15.50;99.90;;;;;;4947608;28;206261;-76
2022/10/02 09:49:35;;;;;;;16.15;2.72;;;15.90;99.90;;;;;;5000110;28;20050;-77
2022/10/02 09:52:25;;;;;;;14.57;2.33;;;16.50;99.90;;;;;;4944723;28;205963;-74
2022/10/02 09:55:16;;;;;;;14.18;2.15;;;16.30;99.90;;;;;;5018069;28;20522;-73
2022/10/02 09:58:04;;;;;;;15.20;2.60;;;15.90;99.90;;;;;;4960464;28;213966;-74
2022/10/02 10:01:13;;;;;;;14.80;2.35;;;15.50;99.90;;;;;;4966658;28;142892;-74
2022/10/02 10:03:52;;;;;;;17.02;2.88;;;15.60;99.90;;;;;;4993937;28;20073;-75
2022/10/02 10:06:40;;;;;;;15.32;2.90;;;15.40;99.90;;;;;;4937684;28;220216;-76
2022/10/02 10:09:51;;;;;;;15.48;2.55;;;15.30;99.90;;;;;;5004045;28;20049;-76
2022/10/02 10:12:45;;;;;;;18.35;2.70;;;15.20;99.90;;;;;;4959266;28;199494;-75
2022/10/02 10:15:21;;;;;;;15.82;2.78;;;15.40;99.90;;;;;;5006043;28;205949;-74
2022/10/02 10:18:06;;;;;;;16.67;2.45;;;16.20;99.90;;;;;;4977763;28;211553;-75
2022/10/02 10:21:07;;;;;;;15.90;2.40;;;17.00;99.90;;;;;;4986275;28;209150;-75
2022/10/02 10:23:52;;;;;;;16.33;2.70;;;17.80;99.90;;;;;;5003797;28;20062;-75
2022/10/02 10:26:36;;;;;;;17.15;2.70;;;18.50;99.90;;;;;;4982608;28;147710;-75
2022/10/02 10:29:38;;;;;;;16.52;2.58;;;18.70;99.90;;;;;;5031628;28;20072;-75
2022/10/02 10:32:10;;;;;;;18.75;3.20;;;19.10;99.90;;;;;;4961891;28;221505;-75
2022/10/02 10:35:14;;;;;;;13.48;2.78;;;19.60;99.90;;;;;;5003435;28;20054;-75
2022/10/02 10:41:14;;;;;;;18.10;3.15;;;20.40;99.90;;;;;;4963013;28;208142;-74
2022/10/02 10:43:55;;;;;;;19.23;3.20;;;20.00;99.90;;;;;;4985885;28;20054;-75
2022/10/02 10:46:52;;;;;;;19.27;3.35;;;19.30;99.90;;;;;;4970578;28;213581;-74
2022/10/02 10:49:30;;;;;;;17.42;2.83;;;18.50;99.90;;;;;;5006613;28;20072;-75
2022/10/02 10:52:28;;;;;;;18.73;2.78;;;17.60;99.90;;;;;;4982839;28;142686;-73
2022/10/02 10:55:15;;;;;;;17.75;2.83;;;17.30;99.90;;;;;;4969556;28;20052;-74
2022/10/02 10:57:41;;;;;;;17.10;2.80;;;16.80;99.90;;;;;;4934602;28;209725;-75
2022/10/02 11:00:17;;;;;;;14.88;2.90;;;16.90;99.90;;;;;;4960067;28;20505;-76
2022/10/02 11:03:19;;;;;;;17.00;2.65;;;16.60;99.90;;;;;;4922238;28;167742;-75
2022/10/02 11:06:07;;;;;;;15.93;2.63;;;17.50;99.90;;;;;;4914771;28;258387;-77
2022/10/02 11:09:19;;;;;;;16.50;2.63;;;18.20;99.90;;;;;;4960579;28;20168;-76
2022/10/02 11:12:20;;;;;;;17.75;3.05;;;19.10;99.90;;;;;;4893423;28;205584;-75
2022/10/02 11:14:55;;;;;;;16.55;2.58;;;19.50;99.90;;;;;;4963946;28;20058;-76
2022/10/02 11:17:43;;;;;;;16.23;2.72;;;19.50;99.90;;;;;;4939049;28;192538;-76
2022/10/02 11:20:39;;;;;;;16.17;3.05;;;18.30;99.90;;;;;;4957915;28;20460;-75
2022/10/02 11:23:29;;;;;;;15.55;2.45;;;19.00;99.90;;;;;;4919774;28;205082;-76
2022/10/02 11:26:20;;;;;;;17.23;2.80;;;19.70;99.90;;;;;;4924800;28;220540;-75
2022/10/02 11:28:55;;;;;;;;;;;20.00;99.40;;;;;;4973853;28;20424;-75
2022/10/02 11:31:28;;;;;;;14.82;2.55;;;19.20;99.70;;;;;;4913124;28;209571;-75
2022/10/02 11:34:15;;;;;;;20.50;3.40;;;19.50;99.90;;;;;;4993592;28;20050;-76
2022/10/02 11:36:45;;;;;;;16.50;2.80;;;19.80;99.30;;;;;;4975027;28;211473;-74
2022/10/02 11:39:41;;;;;;;15.13;2.67;;;19.80;99.90;;;;;;5015819;28;20053;-75
2022/10/02 11:42:19;;;;;;;14.52;2.63;;;19.90;98.80;;;;;;4989117;28;187163;-74
2022/10/02 11:44:54;;;;;;;14.93;2.70;;;19.90;99.70;;;;;;5007693;28;20050;-74
2022/10/02 11:47:27;;;;;;;14.20;2.83;;;19.90;99.90;;;;;;4978827;28;217789;-75
2022/10/02 11:50:12;;;;;;;14.68;2.53;;;19.70;99.40;;;;;;4996409;28;20061;-75
2022/10/02 11:53:15;;;;;;;15.65;2.75;;;20.10;97.50;;;;;;4952401;28;191531;-75
2022/10/02 11:56:08;;;;;;;17.50;2.60;;;20.30;97.40;;;;;;4942452;28;558889;-75
2022/10/02 11:58:54;;;;;;;14.13;2.28;;;20.70;98.80;;;;;;4980267;28;20077;-76
2022/10/02 12:01:40;;;;;;;14.73;2.60;;;21.20;97.90;;;;;;4968840;28;230752;-75
2022/10/02 12:04:17;;;;;;;12.90;2.53;;;21.80;96.80;;;;;;5005593;28;20054;-74
2022/10/02 12:07:10;;;;;;;16.10;2.53;;;21.90;96.20;;;;;;4963700;28;213289;-75
2022/10/02 12:09:53;;;;;;;15.00;2.53;;;22.10;96.30;;;;;;4999307;28;20054;-75
2022/10/02 12:12:38;;;;;;;13.32;2.58;;;22.10;94.60;;;;;;4952020;28;211983;-74
2022/10/02 12:15:33;;;;;;;15.02;2.38;;;21.80;93.90;;;;;;4986647;28;20046;-73
2022/10/02 12:18:36;;;;;;;15.35;2.63;;;21.70;94.10;;;;;;4962043;28;82862;-73
2022/10/02 12:27:28;;;;;;;13.90;2.13;;;20.80;94.30;;;;;;4967336;28;210066;-73
2022/10/02 12:30:16;;;;;;;14.30;2.13;;;19.40;95.30;;;;;;5026051;28;20054;-74
2022/10/02 12:32:58;;;;;;;13.57;2.40;;;18.40;96.40;;;;;;4950798;28;402842;-74
2022/10/02 12:35:55;;;;;;;16.20;2.67;;;18.00;97.60;;;;;;4965072;28;212043;-73
2022/10/02 12:38:54;;;;;;;13.30;2.35;;;17.60;98.20;;;;;;4998457;28;20050;-73
2022/10/02 12:41:57;;;;;;;14.30;2.47;;;18.80;97.90;;;;;;4984161;28;208027;-72
2022/10/02 12:45:05;;;;;;;14.00;2.22;;;19.60;96.20;;;;;;5003294;28;20061;-73
2022/10/02 12:47:59;;;;;;;13.32;2.13;;;20.40;95.50;;;;;;4970553;28;218105;-72
2022/10/02 12:50:46;;;;;;;14.52;2.30;;;21.10;95.20;;;;;;4956089;28;211370;-73
2022/10/02 12:53:37;;;;;;;13.52;2.38;;;21.10;94.80;;;;;;4993107;28;20054;-73
2022/10/02 12:56:34;;;;;;;11.65;2.08;;;21.50;94.50;;;;;;4975267;28;210130;-73
2022/10/02 12:59:21;;;;;;;12.20;2.00;;;21.60;94.00;;;;;;5003385;28;20069;-72
2022/10/02 13:02:21;;;;;;;12.18;1.95;;;21.50;93.90;;;;;;4945068;28;460482;-73
2022/10/02 13:05:22;;;;;;;14.43;2.30;;;20.40;94.20;;;;;;5002137;28;21495;-74
2022/10/02 13:08:17;;;;;;;16.15;1.90;;;19.20;95.00;;;;;;4949558;28;213059;-73
2022/10/02 13:11:07;;;;;;;15.55;2.08;;;20.00;94.10;;;;;;4976401;28;193914;-73
2022/10/02 13:13:44;;;;;;;15.25;2.13;;;20.60;94.10;;;;;;4997365;28;20128;-74
2022/10/02 13:16:43;;;;;;;14.73;2.33;;;20.90;93.50;;;;;;4945787;28;300539;-73
2022/10/02 13:19:36;;;;;;;15.52;2.50;;;21.50;94.00;;;;;;5008184;28;20053;-72
2022/10/02 13:22:08;;;;;;;13.13;2.35;;;21.40;93.20;;;;;;4928529;28;214988;-75
2022/10/02 13:25:16;;;;;;;14.73;2.45;;;21.20;93.70;;;;;;4965037;28;20055;-73
2022/10/02 13:28:23;;;;;;;13.15;2.33;;;20.40;94.30;;;;;;4906229;28;206318;-73
2022/10/02 13:31:35;;;;;;;16.90;2.83;;;20.30;94.40;;;;;;4914397;28;259466;-73
2022/10/02 13:34:24;;;;;;;15.18;2.55;;;20.90;94.90;;;;;;4946389;28;20046;-74
2022/10/02 13:37:14;;;;;;;19.75;2.38;;;21.30;94.80;;;;;;4896890;28;207702;-73
2022/10/02 13:39:47;;;;;;;15.13;2.88;;;21.70;94.10;;;;;;4950616;28;20131;-73
2022/10/02 13:42:20;;;;;;;17.23;2.67;;;21.60;94.30;;;;;;4898073;28;206943;-73
2022/10/02 13:44:47;;;;;;;13.00;2.00;;;21.70;93.90;;;;;;4962026;28;20764;-73
2022/10/02 13:47:34;;;;;;;12.55;2.13;;;22.10;92.90;;;;;;4910157;28;206775;-73
2022/10/02 13:50:15;;;;;;;12.05;2.20;;;21.90;91.10;;;;;;4958675;28;20040;-73
2022/10/02 13:53:00;;;;;;;;;;;22.00;92.20;;;;;;4921370;28;204872;-73
2022/10/02 13:55:40;;;;;;;14.83;2.40;;;21.90;91.80;;;;;;4899091;28;210492;-73
2022/10/02 13:58:07;;;;;;;16.73;2.72;;;21.90;91.70;;;;;;4960935;28;20058;-73
2022/10/02 14:00:36;;;;;;;13.60;2.35;;;21.70;92.50;;;;;;4910455;28;209698;-74